sensor_id;sensor_type;location;lat;lon;timestamp;pressure;altitude;pressure_sealevel;temperature;humidity
11523;BME280;70090;43.208;27.904;2023-12-28T00:01:51;102190.34;;;8.90;100.00
11523;BME280;70090;43.208;27.904;2023-12-28T00:04:19;102197.94;;;8.85;100.00
11523;BME280;70090;43.208;27.904;2023-12-28T00:06:46;102191.97;;;8.74;100.00
11523;BME280;70090;43.208;27.904;2023-12-28T00:09:13;102199.03;;;8.67;100.00
11523;BME280;70090;43.208;27.904;2023-12-28T00:11:40;102210.38;;;8.65;100.00
11523;BME280;70090;43.208;27.904;2023-12-28T00:14:07;102209.53;;;8.65;100.00
11523;BME280;70090;43.208;27.904;2023-12-28T00:16:34;102207.16;;;8.63;100.00
11523;BME280;70090;43.208;27.904;2023-12-28T00:19:03;102220.34;;;8.61;100.00
11523;BME280;70090;43.208;27.904;2023-12-28T00:21:31;102216.97;;;8.56;100.00
11523;BME280;70090;43.208;27.904;2023-12-28T00:23:58;102224.41;;;8.47;100.00
11523;BME280;70090;43.208;27.904;2023-12-28T00:26:25;102211.28;;;8.44;100.00
11523;BME280;70090;43.208;27.904;2023-12-28T00:28:52;102214.03;;;8.44;100.00
11523;BME280;70090;43.208;27.904;2023-12-28T00:31:19;102216.94;;;8.39;100.00
11523;BME280;70090;43.208;27.904;2023-12-28T00:33:46;102218.56;;;8.40;100.00
11523;BME280;70090;43.208;27.904;2023-12-28T00:36:15;102221.63;;;8.38;100.00
11523;BME280;70090;43.208;27.904;2023-12-28T00:38:44;102224.53;;;8.42;100.00
11523;BME280;70090;43.208;27.904;2023-12-28T00:41:11;102224.41;;;8.47;100.00
11523;BME280;70090;43.208;27.904;2023-12-28T00:43:38;102228.22;;;8.46;100.00
11523;BME280;70090;43.208;27.904;2023-12-28T00:46:05;102218.09;;;8.55;100.00
11523;BME280;70090;43.208;27.904;2023-12-28T00:48:32;102223.09;;;8.53;100.00
11523;BME280;70090;43.208;27.904;2023-12-28T00:50:59;102213.09;;;8.57;100.00
11523;BME280;70090;43.208;27.904;2023-12-28T00:53:26;102213.25;;;8.60;100.00
11523;BME280;70090;43.208;27.904;2023-12-28T00:55:55;102217.47;;;8.66;100.00
11523;BME280;70090;43.208;27.904;2023-12-28T00:58:22;102211.81;;;8.71;100.00
11523;BME280;70090;43.208;27.904;2023-12-28T01:00:49;102214.72;;;8.75;100.00
11523;BME280;70090;43.208;27.904;2023-12-28T01:03:19;102213.09;;;8.74;100.00
11523;BME280;70090;43.208;27.904;2023-12-28T01:05:46;102212.47;;;8.77;100.00
11523;BME280;70090;43.208;27.904;2023-12-28T01:08:16;102207.44;;;8.70;100.00
11523;BME280;70090;43.208;27.904;2023-12-28T01:10:43;102217.94;;;8.77;100.00
11523;BME280;70090;43.208;27.904;2023-12-28T01:13:12;102210.22;;;8.79;100.00
11523;BME280;70090;43.208;27.904;2023-12-28T01:15:39;102211.84;;;8.80;100.00
11523;BME280;70090;43.208;27.904;2023-12-28T01:18:06;102206.34;;;8.80;100.00
11523;BME280;70090;43.208;27.904;2023-12-28T01:20:33;102198.91;;;8.80;100.00
11523;BME280;70090;43.208;27.904;2023-12-28T01:23:00;102205.53;;;8.79;100.00
11523;BME280;70090;43.208;27.904;2023-12-28T01:25:27;102206.34;;;8.80;100.00
11523;BME280;70090;43.208;27.904;2023-12-28T01:27:54;102204.72;;;8.79;100.00
11523;BME280;70090;43.208;27.904;2023-12-28T01:30:23;102198.25;;;8.75;100.00
11523;BME280;70090;43.208;27.904;2023-12-28T01:32:50;102193.25;;;8.77;100.00
11523;BME280;70090;43.208;27.904;2023-12-28T01:35:17;102193.41;;;8.72;100.00
11523;BME280;70090;43.208;27.904;2023-12-28T01:37:44;102187.44;;;8.70;100.00
11523;BME280;70090;43.208;27.904;2023-12-28T01:40:11;102189.53;;;8.73;100.00
11523;BME280;70090;43.208;27.904;2023-12-28T01:42:38;102192.28;;;8.73;100.00
11523;BME280;70090;43.208;27.904;2023-12-28T01:45:06;102185.19;;;8.72;100.00
11523;BME280;70090;43.208;27.904;2023-12-28T01:47:35;102191.00;;;8.62;100.00
11523;BME280;70090;43.208;27.904;2023-12-28T01:50:02;102202.94;;;8.49;100.00
11523;BME280;70090;43.208;27.904;2023-12-28T01:52:29;102200.97;;;8.41;100.00
11523;BME280;70090;43.208;27.904;2023-12-28T01:54:57;102194.53;;;8.37;100.00
11523;BME280;70090;43.208;27.904;2023-12-28T01:57:24;102199.19;;;8.36;100.00
11523;BME280;70090;43.208;27.904;2023-12-28T01:59:52;102195.78;;;8.31;100.00
11523;BME280;70090;43.208;27.904;2023-12-28T02:02:20;102195.31;;;8.29;100.00
11523;BME280;70090;43.208;27.904;2023-12-28T02:04:49;102202.69;;;8.20;100.00
11523;BME280;70090;43.208;27.904;2023-12-28T02:07:18;102196.84;;;8.13;100.00
11523;BME280;70090;43.208;27.904;2023-12-28T02:09:47;102199.56;;;8.13;100.00
11523;BME280;70090;43.208;27.904;2023-12-28T02:12:14;102202.09;;;7.92;100.00
11523;BME280;70090;43.208;27.904;2023-12-28T02:14:41;102205.13;;;7.82;100.00
11523;BME280;70090;43.208;27.904;2023-12-28T02:17:13;102207.09;;;7.60;100.00
11523;BME280;70090;43.208;27.904;2023-12-28T02:19:45;102203.13;;;7.35;100.00
11523;BME280;70090;43.208;27.904;2023-12-28T02:22:15;102210.28;;;7.23;100.00
11523;BME280;70090;43.208;27.904;2023-12-28T02:25:01;102216.75;;;7.05;100.00
11523;BME280;70090;43.208;27.904;2023-12-28T02:27:28;102217.47;;;6.97;100.00
11523;BME280;70090;43.208;27.904;2023-12-28T02:29:56;102218.25;;;6.89;100.00
11523;BME280;70090;43.208;27.904;2023-12-28T02:32:28;102216.19;;;6.95;100.00
11523;BME280;70090;43.208;27.904;2023-12-28T02:35:03;102224.75;;;7.02;100.00
11523;BME280;70090;43.208;27.904;2023-12-28T02:37:34;102227.16;;;7.17;100.00
11523;BME280;70090;43.208;27.904;2023-12-28T02:40:04;102221.78;;;7.12;100.00
11523;BME280;70090;43.208;27.904;2023-12-28T02:42:31;102225.19;;;6.95;100.00
11523;BME280;70090;43.208;27.904;2023-12-28T02:44:58;102229.06;;;6.94;100.00
11523;BME280;70090;43.208;27.904;2023-12-28T02:47:25;102231.31;;;6.92;100.00
11523;BME280;70090;43.208;27.904;2023-12-28T02:49:52;102222.94;;;6.97;100.00
11523;BME280;70090;43.208;27.904;2023-12-28T02:52:19;102221.25;;;7.01;100.00
11523;BME280;70090;43.208;27.904;2023-12-28T02:54:46;102230.31;;;7.10;100.00
11523;BME280;70090;43.208;27.904;2023-12-28T02:57:15;102211.66;;;7.12;100.00
11523;BME280;70090;43.208;27.904;2023-12-28T02:59:44;102220.84;;;7.16;100.00
11523;BME280;70090;43.208;27.904;2023-12-28T03:02:11;102232.00;;;7.20;100.00
11523;BME280;70090;43.208;27.904;2023-12-28T03:04:38;102221.63;;;7.08;100.00
11523;BME280;70090;43.208;27.904;2023-12-28T03:07:08;102237.47;;;7.20;100.00
11523;BME280;70090;43.208;27.904;2023-12-28T03:09:35;102226.72;;;7.23;100.00
11523;BME280;70090;43.208;27.904;2023-12-28T03:12:04;102229.88;;;6.95;100.00
11523;BME280;70090;43.208;27.904;2023-12-28T03:14:33;102231.09;;;6.89;100.00
11523;BME280;70090;43.208;27.904;2023-12-28T03:17:00;102224.84;;;6.88;100.00
11523;BME280;70090;43.208;27.904;2023-12-28T03:19:27;102229.91;;;6.81;100.00
11523;BME280;70090;43.208;27.904;2023-12-28T03:21:54;102231.25;;;6.84;100.00
11523;BME280;70090;43.208;27.904;2023-12-28T03:24:21;102237.69;;;6.88;100.00
11523;BME280;70090;43.208;27.904;2023-12-28T03:26:48;102225.53;;;6.94;100.00
11523;BME280;70090;43.208;27.904;2023-12-28T03:29:16;102225.69;;;6.97;100.00
11523;BME280;70090;43.208;27.904;2023-12-28T03:31:44;102221.88;;;6.98;100.00
11523;BME280;70090;43.208;27.904;2023-12-28T03:34:11;102223.22;;;6.87;100.00
11523;BME280;70090;43.208;27.904;2023-12-28T03:36:38;102224.47;;;6.68;100.00
11523;BME280;70090;43.208;27.904;2023-12-28T03:39:05;102232.13;;;6.57;100.00
11523;BME280;70090;43.208;27.904;2023-12-28T03:41:32;102226.25;;;6.50;100.00
11523;BME280;70090;43.208;27.904;2023-12-28T03:43:59;102229.81;;;6.37;100.00
11523;BME280;70090;43.208;27.904;2023-12-28T03:46:27;102221.00;;;6.40;100.00
11523;BME280;70090;43.208;27.904;2023-12-28T03:48:55;102213.81;;;6.44;100.00
11523;BME280;70090;43.208;27.904;2023-12-28T03:51:22;102224.56;;;6.41;100.00
11523;BME280;70090;43.208;27.904;2023-12-28T03:53:49;102224.75;;;6.44;100.00
11523;BME280;70090;43.208;27.904;2023-12-28T03:56:21;102222.19;;;6.48;100.00
11523;BME280;70090;43.208;27.904;2023-12-28T03:58:48;102225.63;;;6.53;100.00
11523;BME280;70090;43.208;27.904;2023-12-28T04:01:16;102218.25;;;6.54;100.00
11523;BME280;70090;43.208;27.904;2023-12-28T04:03:44;102213.50;;;6.46;100.00
11523;BME280;70090;43.208;27.904;2023-12-28T04:06:13;102216.66;;;6.39;100.00
11523;BME280;70090;43.208;27.904;2023-12-28T04:08:40;102216.03;;;6.42;100.00
11523;BME280;70090;43.208;27.904;2023-12-28T04:11:07;102219.69;;;6.38;100.00
11523;BME280;70090;43.208;27.904;2023-12-28T04:13:35;102220.09;;;6.31;100.00
11523;BME280;70090;43.208;27.904;2023-12-28T04:16:03;102223.38;;;6.20;100.00
11523;BME280;70090;43.208;27.904;2023-12-28T04:18:30;102218.53;;;6.03;100.00
11523;BME280;70090;43.208;27.904;2023-12-28T04:20:57;102212.53;;;6.01;100.00
11523;BME280;70090;43.208;27.904;2023-12-28T04:23:26;102215.06;;;5.98;100.00
11523;BME280;70090;43.208;27.904;2023-12-28T04:25:53;102211.44;;;6.02;100.00
11523;BME280;70090;43.208;27.904;2023-12-28T04:28:20;102198.84;;;6.01;100.00
11523;BME280;70090;43.208;27.904;2023-12-28T04:30:47;102195.63;;;5.99;100.00
11523;BME280;70090;43.208;27.904;2023-12-28T04:33:16;102207.06;;;6.01;100.00
11523;BME280;70090;43.208;27.904;2023-12-28T04:35:44;102209.78;;;6.01;100.00
11523;BME280;70090;43.208;27.904;2023-12-28T04:38:11;102203.31;;;5.97;100.00
11523;BME280;70090;43.208;27.904;2023-12-28T04:40:39;102207.66;;;5.98;100.00
11523;BME280;70090;43.208;27.904;2023-12-28T04:43:07;102209.41;;;5.94;100.00
11523;BME280;70090;43.208;27.904;2023-12-28T04:45:34;102205.06;;;5.93;100.00
11523;BME280;70090;43.208;27.904;2023-12-28T04:48:01;102199.09;;;5.91;100.00
11523;BME280;70090;43.208;27.904;2023-12-28T04:50:28;102206.56;;;5.99;100.00
11523;BME280;70090;43.208;27.904;2023-12-28T04:52:55;102210.31;;;6.03;100.00
11523;BME280;70090;43.208;27.904;2023-12-28T04:55:22;102218.00;;;6.15;100.00
11523;BME280;70090;43.208;27.904;2023-12-28T04:57:51;102219.81;;;6.19;100.00
11523;BME280;70090;43.208;27.904;2023-12-28T05:00:18;102218.19;;;6.18;100.00
11523;BME280;70090;43.208;27.904;2023-12-28T05:02:45;102209.00;;;6.14;100.00
11523;BME280;70090;43.208;27.904;2023-12-28T05:05:12;102210.91;;;6.00;100.00
11523;BME280;70090;43.208;27.904;2023-12-28T05:07:39;102201.41;;;5.84;100.00
11523;BME280;70090;43.208;27.904;2023-12-28T05:10:07;102207.72;;;5.66;100.00
11523;BME280;70090;43.208;27.904;2023-12-28T05:12:34;102206.81;;;5.57;100.00
11523;BME280;70090;43.208;27.904;2023-12-28T05:15:04;102211.66;;;5.47;100.00
11523;BME280;70090;43.208;27.904;2023-12-28T05:17:31;102208.28;;;5.36;100.00
11523;BME280;70090;43.208;27.904;2023-12-28T05:19:58;102212.50;;;5.29;100.00
11523;BME280;70090;43.208;27.904;2023-12-28T05:22:25;102201.97;;;5.22;100.00
11523;BME280;70090;43.208;27.904;2023-12-28T05:24:52;102203.91;;;5.22;100.00
11523;BME280;70090;43.208;27.904;2023-12-28T05:27:19;102218.34;;;5.22;100.00
11523;BME280;70090;43.208;27.904;2023-12-28T05:29:46;102216.63;;;5.26;100.00
11523;BME280;70090;43.208;27.904;2023-12-28T05:32:14;102218.56;;;5.26;100.00
11523;BME280;70090;43.208;27.904;2023-12-28T05:34:42;102218.97;;;5.19;100.00
11523;BME280;70090;43.208;27.904;2023-12-28T05:37:09;102227.09;;;5.06;100.00
11523;BME280;70090;43.208;27.904;2023-12-28T05:39:36;102236.09;;;5.06;100.00
11523;BME280;70090;43.208;27.904;2023-12-28T05:42:03;102231.72;;;5.05;100.00
11523;BME280;70090;43.208;27.904;2023-12-28T05:44:30;102232.84;;;5.04;100.00
11523;BME280;70090;43.208;27.904;2023-12-28T05:46:57;102222.66;;;5.10;100.00
11523;BME280;70090;43.208;27.904;2023-12-28T05:49:25;102228.06;;;4.96;100.00
11523;BME280;70090;43.208;27.904;2023-12-28T05:51:54;102227.09;;;5.06;100.00
11523;BME280;70090;43.208;27.904;2023-12-28T05:54:21;102224.94;;;5.21;100.00
11523;BME280;70090;43.208;27.904;2023-12-28T05:56:48;102225.38;;;5.28;100.00
11523;BME280;70090;43.208;27.904;2023-12-28T05:59:15;102231.16;;;5.40;100.00
11523;BME280;70090;43.208;27.904;2023-12-28T06:01:42;102228.53;;;5.49;100.00
11523;BME280;70090;43.208;27.904;2023-12-28T06:04:10;102240.47;;;5.53;100.00
11523;BME280;70090;43.208;27.904;2023-12-28T06:06:38;102232.38;;;5.48;100.00
11523;BME280;70090;43.208;27.904;2023-12-28T06:09:05;102228.50;;;5.35;100.00
11523;BME280;70090;43.208;27.904;2023-12-28T06:11:33;102239.13;;;5.37;100.00
11523;BME280;70090;43.208;27.904;2023-12-28T06:14:00;102226.41;;;5.46;100.00
11523;BME280;70090;43.208;27.904;2023-12-28T06:16:28;102227.13;;;5.51;100.00
11523;BME280;70090;43.208;27.904;2023-12-28T06:18:58;102231.28;;;5.49;100.00
11523;BME280;70090;43.208;27.904;2023-12-28T06:21:25;102236.44;;;5.50;100.00
11523;BME280;70090;43.208;27.904;2023-12-28T06:23:54;102232.81;;;5.55;100.00
11523;BME280;70090;43.208;27.904;2023-12-28T06:26:21;102225.91;;;5.57;100.00
11523;BME280;70090;43.208;27.904;2023-12-28T06:28:48;102238.28;;;5.68;100.00
11523;BME280;70090;43.208;27.904;2023-12-28T06:31:15;102244.63;;;5.82;100.00
11523;BME280;70090;43.208;27.904;2023-12-28T06:33:42;102241.59;;;5.97;100.00
11523;BME280;70090;43.208;27.904;2023-12-28T06:36:11;102234.28;;;6.06;100.00
11523;BME280;70090;43.208;27.904;2023-12-28T06:38:38;102231.88;;;6.18;100.00
11523;BME280;70090;43.208;27.904;2023-12-28T06:41:13;102231.72;;;6.37;100.00
11523;BME280;70090;43.208;27.904;2023-12-28T06:43:40;102228.59;;;6.43;100.00
11523;BME280;70090;43.208;27.904;2023-12-28T06:46:07;102229.16;;;6.67;100.00
11523;BME280;70090;43.208;27.904;2023-12-28T06:48:34;102243.88;;;6.93;100.00
11523;BME280;70090;43.208;27.904;2023-12-28T06:51:01;102224.72;;;7.15;100.00
11523;BME280;70090;43.208;27.904;2023-12-28T06:53:28;102228.69;;;7.31;100.00
11523;BME280;70090;43.208;27.904;2023-12-28T06:55:55;102229.91;;;7.47;100.00
11523;BME280;70090;43.208;27.904;2023-12-28T06:58:24;102228.91;;;7.65;100.00
11523;BME280;70090;43.208;27.904;2023-12-28T07:00:51;102221.88;;;7.81;100.00
11523;BME280;70090;43.208;27.904;2023-12-28T07:03:18;102222.88;;;7.85;100.00
11523;BME280;70090;43.208;27.904;2023-12-28T07:05:45;102229.97;;;7.86;100.00
11523;BME280;70090;43.208;27.904;2023-12-28T07:08:12;102214.69;;;7.93;100.00
11523;BME280;70090;43.208;27.904;2023-12-28T07:10:39;102213.06;;;7.92;100.00
11523;BME280;70090;43.208;27.904;2023-12-28T07:13:06;102217.59;;;7.97;100.00
11523;BME280;70090;43.208;27.904;2023-12-28T07:15:35;102224.22;;;7.96;100.00
11523;BME280;70090;43.208;27.904;2023-12-28T07:18:03;102221.94;;;7.98;100.00
11523;BME280;70090;43.208;27.904;2023-12-28T07:20:30;102220.19;;;8.02;100.00
11523;BME280;70090;43.208;27.904;2023-12-28T07:22:57;102215.81;;;8.01;100.00
11523;BME280;70090;43.208;27.904;2023-12-28T07:25:24;102216.75;;;7.88;100.00
11523;BME280;70090;43.208;27.904;2023-12-28T07:27:51;102221.88;;;7.81;100.00
11523;BME280;70090;43.208;27.904;2023-12-28T07:30:18;102227.50;;;7.76;100.00
11523;BME280;70090;43.208;27.904;2023-12-28T07:32:46;102237.81;;;7.79;100.00
11523;BME280;70090;43.208;27.904;2023-12-28T07:35:13;102236.09;;;7.83;100.00
11523;BME280;70090;43.208;27.904;2023-12-28T07:37:41;102227.81;;;7.74;100.00
11523;BME280;70090;43.208;27.904;2023-12-28T07:40:09;102239.00;;;7.56;100.00
11523;BME280;70090;43.208;27.904;2023-12-28T07:42:36;102239.75;;;7.48;100.00
11523;BME280;70090;43.208;27.904;2023-12-28T07:45:04;102234.28;;;7.48;100.00
11523;BME280;70090;43.208;27.904;2023-12-28T07:47:31;102237.91;;;7.65;100.00
11523;BME280;70090;43.208;27.904;2023-12-28T07:50:00;102232.03;;;7.80;100.00
11523;BME280;70090;43.208;27.904;2023-12-28T07:52:28;102237.53;;;7.80;100.00
11523;BME280;70090;43.208;27.904;2023-12-28T07:54:55;102245.59;;;7.85;100.00
11523;BME280;70090;43.208;27.904;2023-12-28T07:57:22;102244.53;;;7.95;100.00
11523;BME280;70090;43.208;27.904;2023-12-28T07:59:49;102235.50;;;8.03;100.00
11523;BME280;70090;43.208;27.904;2023-12-28T08:02:16;102240.69;;;8.13;100.00
11523;BME280;70090;43.208;27.904;2023-12-28T08:04:43;102253.97;;;8.19;100.00
11523;BME280;70090;43.208;27.904;2023-12-28T08:07:12;102252.25;;;8.32;100.00
11523;BME280;70090;43.208;27.904;2023-12-28T08:09:39;102249.34;;;8.28;100.00
11523;BME280;70090;43.208;27.904;2023-12-28T08:12:06;102261.97;;;8.46;100.00
11523;BME280;70090;43.208;27.904;2023-12-28T08:14:33;102245.22;;;8.65;100.00
11523;BME280;70090;43.208;27.904;2023-12-28T08:17:00;102243.47;;;8.86;100.00
11523;BME280;70090;43.208;27.904;2023-12-28T08:19:27;102238.94;;;9.07;100.00
11523;BME280;70090;43.208;27.904;2023-12-28T08:21:54;102230.72;;;9.24;100.00
11523;BME280;70090;43.208;27.904;2023-12-28T08:24:22;102233.72;;;9.48;100.00
11523;BME280;70090;43.208;27.904;2023-12-28T08:26:49;102234.97;;;9.76;100.00
11523;BME280;70090;43.208;27.904;2023-12-28T08:29:16;102239.25;;;10.02;100.00
11523;BME280;70090;43.208;27.904;2023-12-28T08:31:43;102243.34;;;10.25;100.00
11523;BME280;70090;43.208;27.904;2023-12-28T08:34:12;102238.84;;;10.49;100.00
11523;BME280;70090;43.208;27.904;2023-12-28T08:36:39;102238.31;;;10.76;100.00
11523;BME280;70090;43.208;27.904;2023-12-28T08:39:07;102243.31;;;11.03;100.00
11523;BME280;70090;43.208;27.904;2023-12-28T08:41:36;102228.47;;;11.28;100.00
11523;BME280;70090;43.208;27.904;2023-12-28T08:44:03;102217.97;;;11.54;100.00
11523;BME280;70090;43.208;27.904;2023-12-28T08:46:30;102215.31;;;11.78;100.00
11523;BME280;70090;43.208;27.904;2023-12-28T08:48:57;102210.53;;;11.99;100.00
11523;BME280;70090;43.208;27.904;2023-12-28T08:51:24;102211.78;;;12.14;100.00
11523;BME280;70090;43.208;27.904;2023-12-28T08:53:51;102210.38;;;12.32;100.00
11523;BME280;70090;43.208;27.904;2023-12-28T08:56:20;102208.66;;;12.51;100.00
11523;BME280;70090;43.208;27.904;2023-12-28T08:58:49;102199.63;;;12.66;100.00
11523;BME280;70090;43.208;27.904;2023-12-28T09:01:18;102191.34;;;12.66;100.00
11523;BME280;70090;43.208;27.904;2023-12-28T09:03:48;102184.00;;;12.58;100.00
11523;BME280;70090;43.208;27.904;2023-12-28T09:06:15;102180.19;;;12.62;100.00
11523;BME280;70090;43.208;27.904;2023-12-28T09:08:43;102181.19;;;12.70;100.00
11523;BME280;70090;43.208;27.904;2023-12-28T09:11:10;102173.78;;;12.86;100.00
11523;BME280;70090;43.208;27.904;2023-12-28T09:13:38;102171.72;;;12.95;100.00
11523;BME280;70090;43.208;27.904;2023-12-28T09:16:10;102172.22;;;13.12;100.00
11523;BME280;70090;43.208;27.904;2023-12-28T09:18:38;102175.72;;;13.25;100.00
11523;BME280;70090;43.208;27.904;2023-12-28T09:21:06;102160.31;;;13.39;100.00
11523;BME280;70090;43.208;27.904;2023-12-28T09:23:34;102152.75;;;13.52;100.00
11523;BME280;70090;43.208;27.904;2023-12-28T09:26:03;102151.50;;;13.65;99.25
11523;BME280;70090;43.208;27.904;2023-12-28T09:28:30;102146.88;;;13.69;99.40
11523;BME280;70090;43.208;27.904;2023-12-28T09:30:57;102149.00;;;13.75;100.00
11523;BME280;70090;43.208;27.904;2023-12-28T09:33:26;102133.28;;;13.79;100.00
11523;BME280;70090;43.208;27.904;2023-12-28T09:35:53;102131.34;;;13.80;100.00
11523;BME280;70090;43.208;27.904;2023-12-28T09:38:20;102125.69;;;13.92;100.00
11523;BME280;70090;43.208;27.904;2023-12-28T09:40:49;102120.78;;;14.01;100.00
11523;BME280;70090;43.208;27.904;2023-12-28T09:43:22;102111.53;;;14.12;100.00
11523;BME280;70090;43.208;27.904;2023-12-28T09:45:50;102113.00;;;14.22;100.00
11523;BME280;70090;43.208;27.904;2023-12-28T09:48:18;102107.31;;;14.34;100.00
11523;BME280;70090;43.208;27.904;2023-12-28T09:50:49;102105.72;;;14.52;100.00
11523;BME280;70090;43.208;27.904;2023-12-28T09:53:20;102094.50;;;14.64;100.00
11523;BME280;70090;43.208;27.904;2023-12-28T09:55:48;102095.97;;;14.77;100.00
11523;BME280;70090;43.208;27.904;2023-12-28T09:58:17;102089.44;;;14.88;100.00
11523;BME280;70090;43.208;27.904;2023-12-28T10:00:46;102079.44;;;15.02;100.00
11523;BME280;70090;43.208;27.904;2023-12-28T10:03:14;102080.56;;;15.20;99.80
11523;BME280;70090;43.208;27.904;2023-12-28T10:05:41;102070.84;;;15.30;97.35
11523;BME280;70090;43.208;27.904;2023-12-28T10:08:11;102077.44;;;15.44;97.85
11523;BME280;70090;43.208;27.904;2023-12-28T10:10:38;102070.91;;;15.56;96.43
11523;BME280;70090;43.208;27.904;2023-12-28T10:13:06;102072.56;;;15.60;95.26
11523;BME280;70090;43.208;27.904;2023-12-28T10:15:35;102071.16;;;15.47;95.94
11523;BME280;70090;43.208;27.904;2023-12-28T10:18:03;102070.78;;;15.49;97.29
11523;BME280;70090;43.208;27.904;2023-12-28T10:20:31;102074.25;;;15.42;97.85
11523;BME280;70090;43.208;27.904;2023-12-28T10:22:58;102065.50;;;15.40;98.26
11523;BME280;70090;43.208;27.904;2023-12-28T10:25:28;102062.53;;;15.52;99.11
11523;BME280;70090;43.208;27.904;2023-12-28T10:27:55;102046.72;;;15.56;98.64
11523;BME280;70090;43.208;27.904;2023-12-28T10:30:23;102042.34;;;15.55;97.47
11523;BME280;70090;43.208;27.904;2023-12-28T10:32:50;102045.97;;;15.59;97.05
11523;BME280;70090;43.208;27.904;2023-12-28T10:35:17;102047.75;;;15.71;96.86
11523;BME280;70090;43.208;27.904;2023-12-28T10:37:44;102044.19;;;15.70;95.94
11523;BME280;70090;43.208;27.904;2023-12-28T10:40:14;102043.53;;;15.80;95.81
11523;BME280;70090;43.208;27.904;2023-12-28T10:42:49;102043.22;;;15.85;95.57
11523;BME280;70090;43.208;27.904;2023-12-28T10:45:18;102041.75;;;15.95;95.98
11523;BME280;70090;43.208;27.904;2023-12-28T10:47:54;102031.88;;;15.97;95.66
11523;BME280;70090;43.208;27.904;2023-12-28T10:50:22;102032.59;;;15.91;96.32
11523;BME280;70090;43.208;27.904;2023-12-28T10:52:59;102023.91;;;15.92;97.17
11523;BME280;70090;43.208;27.904;2023-12-28T10:55:36;102018.53;;;16.06;95.34
11523;BME280;70090;43.208;27.904;2023-12-28T10:58:10;102019.78;;;16.12;94.93
11523;BME280;70090;43.208;27.904;2023-12-28T11:00:43;102012.88;;;16.29;95.14
11523;BME280;70090;43.208;27.904;2023-12-28T11:03:15;102019.88;;;16.45;94.07
11523;BME280;70090;43.208;27.904;2023-12-28T11:05:46;102012.44;;;16.56;93.47
11523;BME280;70090;43.208;27.904;2023-12-28T11:08:15;102012.19;;;16.68;92.97
11523;BME280;70090;43.208;27.904;2023-12-28T11:10:43;102005.13;;;16.78;92.27
11523;BME280;70090;43.208;27.904;2023-12-28T11:13:12;101999.59;;;16.81;90.67
11523;BME280;70090;43.208;27.904;2023-12-28T11:15:41;101993.34;;;16.91;90.72
11523;BME280;70090;43.208;27.904;2023-12-28T11:18:09;101994.38;;;17.16;90.18
11523;BME280;70090;43.208;27.904;2023-12-28T11:20:36;101998.44;;;17.29;88.05
11523;BME280;70090;43.208;27.904;2023-12-28T11:23:04;101998.63;;;17.47;86.96
11523;BME280;70090;43.208;27.904;2023-12-28T11:25:32;101997.91;;;17.57;86.08
11523;BME280;70090;43.208;27.904;2023-12-28T11:28:00;101985.22;;;17.63;84.90
11523;BME280;70090;43.208;27.904;2023-12-28T11:30:28;101993.22;;;17.71;83.96
11523;BME280;70090;43.208;27.904;2023-12-28T11:32:56;101982.91;;;17.75;83.54
11523;BME280;70090;43.208;27.904;2023-12-28T11:35:34;101976.63;;;17.85;83.05
11523;BME280;70090;43.208;27.904;2023-12-28T11:38:03;101979.00;;;17.90;82.13
11523;BME280;70090;43.208;27.904;2023-12-28T11:40:40;101974.69;;;17.96;81.52
11523;BME280;70090;43.208;27.904;2023-12-28T11:43:15;101967.81;;;17.83;81.37
11523;BME280;70090;43.208;27.904;2023-12-28T11:45:49;101962.09;;;17.55;82.88
11523;BME280;70090;43.208;27.904;2023-12-28T11:48:23;101965.38;;;17.67;82.88
11523;BME280;70090;43.208;27.904;2023-12-28T11:50:54;101967.47;;;17.88;81.95
11523;BME280;70090;43.208;27.904;2023-12-28T11:53:22;101961.28;;;18.22;80.24
11523;BME280;70090;43.208;27.904;2023-12-28T11:55:50;101952.56;;;18.34;78.93
11523;BME280;70090;43.208;27.904;2023-12-28T11:58:17;101944.63;;;18.40;77.60
11523;BME280;70090;43.208;27.904;2023-12-28T12:00:44;101945.44;;;18.51;77.30
11523;BME280;70090;43.208;27.904;2023-12-28T12:03:13;101944.25;;;18.52;76.94
11523;BME280;70090;43.208;27.904;2023-12-28T12:05:40;101940.69;;;18.62;76.43
11523;BME280;70090;43.208;27.904;2023-12-28T12:08:09;101928.34;;;18.59;75.71
11523;BME280;70090;43.208;27.904;2023-12-28T12:10:39;101926.75;;;18.58;76.16
11523;BME280;70090;43.208;27.904;2023-12-28T12:13:07;101912.38;;;18.42;76.30
11523;BME280;70090;43.208;27.904;2023-12-28T12:15:34;101925.50;;;18.42;76.19
11523;BME280;70090;43.208;27.904;2023-12-28T12:18:01;101915.16;;;18.46;76.87
11523;BME280;70090;43.208;27.904;2023-12-28T12:20:30;101908.38;;;18.47;75.49
11523;BME280;70090;43.208;27.904;2023-12-28T12:22:58;101904.28;;;18.13;75.57
11523;BME280;70090;43.208;27.904;2023-12-28T12:25:25;101900.59;;;17.84;78.00
11523;BME280;70090;43.208;27.904;2023-12-28T12:27:54;101901.00;;;17.79;78.45
11523;BME280;70090;43.208;27.904;2023-12-28T12:30:21;101896.84;;;17.49;79.47
11523;BME280;70090;43.208;27.904;2023-12-28T12:32:48;101895.34;;;17.65;80.52
11523;BME280;70090;43.208;27.904;2023-12-28T12:35:16;101897.81;;;17.81;80.03
11523;BME280;70090;43.208;27.904;2023-12-28T12:37:48;101891.16;;;18.13;78.92
11523;BME280;70090;43.208;27.904;2023-12-28T12:40:17;101886.09;;;18.36;78.46
11523;BME280;70090;43.208;27.904;2023-12-28T12:42:52;101888.00;;;18.25;78.32